createdAt,value
2022-08-05T00:01:27.800Z,22.60
2022-08-05T00:06:32.408Z,22.50
2022-08-05T00:11:49.584Z,22.40
2022-08-05T00:16:52.497Z,22.20
2022-08-05T00:21:39.531Z,22.10
2022-08-05T00:26:27.235Z,22.00
2022-08-05T00:31:54.148Z,21.90
2022-08-05T00:37:10.806Z,21.70
2022-08-05T00:41:46.874Z,21.60
2022-08-05T00:47:01.837Z,21.40
2022-08-05T00:51:51.100Z,21.30
2022-08-05T00:56:37.872Z,21.30
2022-08-05T01:01:42.191Z,21.20
2022-08-05T01:06:32.506Z,21.10
2022-08-05T01:11:22.175Z,21.00
2022-08-05T01:16:49.789Z,20.90
2022-08-05T01:22:10.911Z,20.80
2022-08-05T01:27:17.518Z,20.70
2022-08-05T01:32:07.611Z,20.60
2022-08-05T01:37:01.921Z,20.50
2022-08-05T01:41:47.195Z,20.40
2022-08-05T01:46:42.044Z,20.30
2022-08-05T01:51:29.998Z,20.20
2022-08-05T01:58:10.299Z,20.10
2022-08-05T02:01:26.454Z,20.20
2022-08-05T02:06:37.777Z,20.50
2022-08-05T02:11:23.955Z,20.80
2022-08-05T02:16:22.180Z,21.00
2022-08-05T02:21:15.199Z,21.10
2022-08-05T02:26:01.519Z,21.10
2022-08-05T02:30:51.681Z,21.10
2022-08-05T02:35:51.037Z,21.10
2022-08-05T02:40:45.452Z,21.00
2022-08-05T02:45:52.976Z,21.00
2022-08-05T02:50:39.394Z,21.00
2022-08-05T02:55:54.282Z,21.20
2022-08-05T03:00:34.762Z,21.30
2022-08-05T03:05:21.773Z,21.50
2022-08-05T03:10:25.982Z,21.70
2022-08-05T03:15:12.447Z,21.90
2022-08-05T03:19:58.472Z,21.90
2022-08-05T03:24:42.649Z,21.80
2022-08-05T03:29:45.565Z,21.60
2022-08-05T03:34:36.805Z,21.40
2022-08-05T03:39:26.872Z,21.50
2022-08-05T03:44:12.015Z,21.10
2022-08-05T03:48:57.046Z,21.10
2022-08-05T03:55:34.034Z,21.00
2022-08-05T03:58:51.117Z,20.80
2022-08-05T04:03:38.426Z,20.80
2022-08-05T04:08:34.931Z,21.00
2022-08-05T04:13:21.718Z,21.40
2022-08-05T04:18:09.266Z,21.50
2022-08-05T04:22:53.462Z,21.70
2022-08-05T04:27:43.896Z,21.80
2022-08-05T04:32:41.151Z,21.90
2022-08-05T04:38:01.516Z,22.20
2022-08-05T04:42:31.703Z,22.50
2022-08-05T04:47:20.011Z,22.80
2022-08-05T04:52:03.921Z,23.10
2022-08-05T04:56:48.054Z,23.40
2022-08-05T05:02:06.372Z,23.80
2022-08-05T05:06:42.302Z,24.10
2022-08-05T05:11:41.553Z,24.40
2022-08-05T05:16:32.487Z,24.70
2022-08-05T05:21:17.300Z,24.90
2022-08-05T05:26:02.339Z,25.00
2022-08-05T05:30:49.780Z,25.30
2022-08-05T05:35:37.937Z,25.60
2022-08-05T05:40:25.839Z,25.70
2022-08-05T05:45:12.208Z,26.00
2022-08-05T05:50:01.488Z,26.20
2022-08-05T05:54:50.363Z,26.50
2022-08-05T05:59:40.097Z,26.70
2022-08-05T06:04:25.559Z,26.70
2022-08-05T06:09:09.335Z,27.00
2022-08-05T06:14:01.688Z,27.20
2022-08-05T06:18:46.172Z,27.50
2022-08-05T06:23:44.056Z,27.60
2022-08-05T06:28:28.550Z,27.80
2022-08-05T06:33:12.500Z,28.40
2022-08-05T06:38:10.005Z,28.70
2022-08-05T06:42:56.763Z,28.90
2022-08-05T06:48:36.901Z,28.60
2022-08-05T06:52:44.331Z,28.60
2022-08-05T06:57:57.445Z,28.60
2022-08-05T07:02:48.524Z,28.50
2022-08-05T07:07:43.876Z,28.70
2022-08-05T07:12:49.098Z,28.80
2022-08-05T07:17:58.199Z,28.60
2022-08-05T07:22:38.411Z,28.40
2022-08-05T07:27:22.366Z,28.40
2022-08-05T07:32:12.434Z,27.90
2022-08-05T07:36:58.444Z,27.30
2022-08-05T07:42:13.533Z,27.50
2022-08-05T07:46:48.524Z,27.90
2022-08-05T07:51:40.842Z,27.90
2022-08-05T07:57:02.526Z,28.80
2022-08-05T08:01:52.147Z,28.70
2022-08-05T08:06:41.228Z,28.40
2022-08-05T08:11:27.661Z,28.20
2022-08-05T08:16:50.259Z,28.10
2022-08-05T08:21:33.481Z,27.90
2022-08-05T08:26:17.465Z,28.00
2022-08-05T08:31:14.577Z,27.80
2022-08-05T08:36:29.666Z,28.20
2022-08-05T08:41:08.645Z,28.50
2022-08-05T08:45:55.309Z,28.60
2022-08-05T08:51:07.605Z,29.10
2022-08-05T08:56:04.733Z,29.40
2022-08-05T09:00:51.697Z,29.60
2022-08-05T09:05:38.707Z,30.10
2022-08-05T09:10:43.496Z,30.30
2022-08-05T09:15:30.652Z,30.90
2022-08-05T09:20:36.187Z,30.60
2022-08-05T09:25:23.992Z,30.30
2022-08-05T09:30:25.516Z,30.40
2022-08-05T09:35:27.069Z,30.50
2022-08-05T09:40:30.911Z,31.10
2022-08-05T09:46:02.658Z,30.90
2022-08-05T09:50:37.640Z,31.30
2022-08-05T09:55:56.848Z,31.60
2022-08-05T10:00:27.740Z,31.90
2022-08-05T10:05:16.106Z,32.10
2022-08-05T10:10:13.833Z,32.00
2022-08-05T10:15:25.841Z,31.90
2022-08-05T10:20:12.342Z,32.70
2022-08-05T10:25:02.255Z,32.90
2022-08-05T10:30:06.819Z,33.10
2022-08-05T10:34:52.548Z,32.50
2022-08-05T10:40:03.062Z,33.20
2022-08-05T10:44:46.637Z,33.60
2022-08-05T10:49:33.091Z,33.80
2022-08-05T10:54:28.612Z,34.10
2022-08-05T11:00:04.323Z,33.90
2022-08-05T11:04:26.365Z,33.60
2022-08-05T11:09:32.271Z,34.00
2022-08-05T11:15:11.352Z,33.90
2022-08-05T11:20:10.691Z,34.60
2022-08-05T11:24:38.804Z,34.90
2022-08-05T11:29:40.854Z,35.10
2022-08-05T11:34:38.159Z,34.90
2022-08-05T11:40:00.661Z,35.10
2022-08-05T11:44:53.832Z,35.40
2022-08-05T11:49:38.027Z,35.00
2022-08-05T11:54:33.600Z,35.30
2022-08-05T11:59:21.466Z,35.50
2022-08-05T12:04:05.770Z,35.90
2022-08-05T12:08:55.220Z,36.20
2022-08-05T12:13:49.255Z,36.40
2022-08-05T12:18:38.883Z,36.30
2022-08-05T12:23:22.836Z,36.00
2022-08-05T12:28:06.189Z,35.80
2022-08-05T12:32:53.859Z,35.40
2022-08-05T12:37:41.457Z,35.50
2022-08-05T12:42:31.243Z,35.40
2022-08-05T12:47:17.092Z,35.90
2022-08-05T12:52:13.875Z,36.40
2022-08-05T12:57:09.272Z,36.80
2022-08-05T13:02:07.566Z,36.90
2022-08-05T13:06:52.166Z,36.30
2022-08-05T13:12:02.738Z,36.20
2022-08-05T13:16:50.920Z,36.20
2022-08-05T13:21:38.042Z,36.20
2022-08-05T13:26:31.621Z,36.20
2022-08-05T13:31:15.380Z,36.10
2022-08-05T13:36:02.022Z,36.20
2022-08-05T13:40:51.398Z,35.20
2022-08-05T13:45:43.060Z,35.20
2022-08-05T13:50:27.059Z,35.40
2022-08-05T13:55:12.431Z,35.50
2022-08-05T14:00:16.170Z,35.90
2022-08-05T14:05:15.443Z,35.80
2022-08-05T14:10:03.797Z,36.20
2022-08-05T14:14:49.445Z,35.80
2022-08-05T14:19:54.118Z,35.60
2022-08-05T14:24:39.891Z,35.60
2022-08-05T14:29:23.943Z,35.20
2022-08-05T14:34:11.980Z,34.90
2022-08-05T14:38:56.915Z,35.20
2022-08-05T14:44:00.259Z,34.80
2022-08-05T14:48:44.715Z,34.70
2022-08-05T14:53:35.112Z,34.80
2022-08-05T14:58:28.429Z,34.70
2022-08-05T15:03:13.247Z,34.70
2022-08-05T15:08:10.645Z,34.60
2022-08-05T15:13:04.893Z,34.30
2022-08-05T15:17:53.928Z,34.20
2022-08-05T15:22:38.222Z,34.40
2022-08-05T15:27:21.761Z,34.20
2022-08-05T15:32:10.814Z,34.20
2022-08-05T15:36:55.477Z,34.00
2022-08-05T15:41:57.651Z,33.90
2022-08-05T15:46:42.707Z,33.40
2022-08-05T15:52:04.158Z,33.00
2022-08-05T15:56:40.944Z,33.30
2022-08-05T16:01:29.596Z,33.30
2022-08-05T16:06:24.088Z,33.40
2022-08-05T16:11:10.651Z,33.30
2022-08-05T16:15:54.611Z,33.20
2022-08-05T16:20:39.364Z,33.40
2022-08-05T16:25:22.959Z,33.10
2022-08-05T16:30:25.875Z,33.10
2022-08-05T16:35:10.966Z,32.70
2022-08-05T16:40:05.630Z,32.40
2022-08-05T16:44:54.374Z,32.20
2022-08-05T16:49:42.414Z,32.00
2022-08-05T16:54:31.937Z,31.50
2022-08-05T16:59:16.910Z,31.10
2022-08-05T17:04:03.593Z,30.80
2022-08-05T17:08:52.972Z,30.50
2022-08-05T17:13:43.005Z,30.10
2022-08-05T17:18:27.741Z,29.80
2022-08-05T17:24:04.615Z,29.60
2022-08-05T17:28:16.707Z,29.30
2022-08-05T17:33:00.625Z,29.20
2022-08-05T17:37:45.150Z,29.10
2022-08-05T17:42:32.490Z,28.80
2022-08-05T17:47:21.920Z,28.50
2022-08-05T17:52:06.273Z,27.70
2022-08-05T17:56:51.216Z,27.40
2022-08-05T18:01:49.445Z,26.90
2022-08-05T18:06:35.732Z,26.50
2022-08-05T18:11:23.374Z,25.90
2022-08-05T18:16:09.770Z,25.60
2022-08-05T18:20:57.453Z,25.20
2022-08-05T18:25:45.739Z,24.90
2022-08-05T18:30:29.734Z,24.40
2022-08-05T18:35:13.630Z,24.00
2022-08-05T18:41:03.349Z,23.50
2022-08-05T18:45:02.844Z,23.10
2022-08-05T18:50:10.732Z,22.70
2022-08-05T18:54:54.744Z,22.60
2022-08-05T18:59:43.352Z,22.50
2022-08-05T19:05:02.092Z,22.30
2022-08-05T19:09:47.827Z,22.20
2022-08-05T19:14:44.923Z,22.20
2022-08-05T19:19:38.285Z,22.10
2022-08-05T19:24:34.390Z,22.10
2022-08-05T19:29:19.097Z,22.00
2022-08-05T19:34:02.830Z,21.80
2022-08-05T19:38:46.370Z,21.50
2022-08-05T19:44:05.652Z,21.30
2022-08-05T19:48:38.475Z,20.90
2022-08-05T19:54:04.809Z,20.80
2022-08-05T19:58:29.530Z,20.60
2022-08-05T20:03:14.856Z,20.60
2022-08-05T20:07:59.174Z,20.40
2022-08-05T20:12:47.597Z,20.30
2022-08-05T20:17:36.411Z,20.40
2022-08-05T20:22:22.409Z,20.40
2022-08-05T20:27:13.472Z,20.40
2022-08-05T20:32:02.312Z,20.20
2022-08-05T20:36:58.404Z,20.00
2022-08-05T20:41:56.378Z,19.90
2022-08-05T20:46:56.697Z,19.80
2022-08-05T20:52:02.959Z,19.60
2022-08-05T20:56:57.927Z,19.40
2022-08-05T21:01:57.588Z,19.20
2022-08-05T21:06:46.358Z,19.20
2022-08-05T21:12:10.694Z,19.20
2022-08-05T21:16:44.920Z,19.20
2022-08-05T21:21:39.414Z,19.10
2022-08-05T21:26:29.574Z,19.00
2022-08-05T21:31:14.809Z,19.10
2022-08-05T21:36:02.043Z,19.10
2022-08-05T21:40:46.312Z,18.90
2022-08-05T21:45:56.918Z,19.00
2022-08-05T21:50:36.663Z,18.80
2022-08-05T21:56:01.701Z,18.60
2022-08-05T22:00:26.853Z,18.70
2022-08-05T22:05:11.377Z,18.50
2022-08-05T22:09:54.824Z,18.40
2022-08-05T22:14:41.992Z,18.20
2022-08-05T22:20:00.502Z,18.30
2022-08-05T22:24:52.024Z,18.20
2022-08-05T22:29:37.042Z,18.10
2022-08-05T22:34:28.210Z,18.20
2022-08-05T22:39:14.847Z,18.10
2022-08-05T22:43:59.397Z,18.10
2022-08-05T22:48:43.281Z,18.00
2022-08-05T22:53:35.899Z,18.00
2022-08-05T22:58:28.257Z,17.40
2022-08-05T23:03:13.501Z,17.10
2022-08-05T23:07:57.678Z,16.80
2022-08-05T23:12:43.846Z,16.60
2022-08-05T23:17:34.249Z,16.40
2022-08-05T23:22:27.146Z,16.20
2022-08-05T23:27:11.623Z,16.10
2022-08-05T23:31:56.839Z,15.90
2022-08-05T23:36:44.572Z,15.80
2022-08-05T23:41:28.539Z,15.80
2022-08-05T23:46:22.087Z,15.80
2022-08-05T23:51:07.782Z,15.80
2022-08-05T23:55:51.640Z,15.60
